Time,TemperatureF,DewpointF,PressureIn,WindDirection,WindDirectionDegrees,WindSpeedMPH,WindSpeedGustMPH,Humidity,HourlyPrecipIn,Conditions,Clouds,dailyrainin,SoftwareType,DateUTC
2013-05-07 00:09:00,56.0,51.6,30.03,N/A,-737280,0.0,-999.0,85,0.00,,,0.00,Wunderground v.1.15,2013-05-07 07:09:00,
2013-05-07 00:14:00,56.0,51.6,30.03,N/A,-737280,0.0,-999.0,85,0.00,,,0.00,Wunderground v.1.15,2013-05-07 07:14:00,
2013-05-07 00:19:00,56.0,51.6,30.03,N/A,-737280,0.0,-999.0,85,0.00,,,0.00,Wunderground v.1.15,2013-05-07 07:19:00,
2013-05-07 00:24:00,56.0,51.6,30.03,N/A,-737280,0.0,-999.0,85,0.00,,,0.00,Wunderground v.1.15,2013-05-07 07:24:00,
2013-05-07 00:29:00,56.0,51.6,30.03,N/A,-737280,0.0,-999.0,85,0.00,,,0.00,Wunderground v.1.15,2013-05-07 07:29:00,
2013-05-07 00:34:00,56.0,51.6,30.03,N/A,-737280,0.0,-999.0,85,0.00,,,0.00,Wunderground v.1.15,2013-05-07 07:34:00,
2013-05-07 00:39:00,56.0,51.6,30.03,N/A,-737280,0.0,-999.0,85,0.00,,,0.00,Wunderground v.1.15,2013-05-07 07:39:00,
2013-05-07 00:44:00,56.0,51.6,30.03,N/A,-737280,0.0,-999.0,85,0.00,,,0.00,Wunderground v.1.15,2013-05-07 07:44:00,
2013-05-07 00:49:00,56.0,51.2,30.03,N/A,-737280,0.0,-999.0,84,0.00,,,0.00,Wunderground v.1.15,2013-05-07 07:49:00,
2013-05-07 00:54:00,56.0,51.2,30.03,N/A,-737280,0.0,-999.0,84,0.00,,,0.00,Wunderground v.1.15,2013-05-07 07:54:00,
2013-05-07 00:59:00,56.0,51.2,30.03,N/A,-737280,0.0,-999.0,84,0.00,,,0.00,Wunderground v.1.15,2013-05-07 07:59:00,
2013-05-07 01:04:00,56.0,51.2,30.03,N/A,-737280,0.0,-999.0,84,0.00,,,0.00,Wunderground v.1.15,2013-05-07 08:04:00,
2013-05-07 01:09:00,56.0,51.2,30.03,N/A,-737280,0.0,-999.0,84,0.00,,,0.00,Wunderground v.1.15,2013-05-07 08:09:00,
2013-05-07 01:14:00,56.0,51.2,30.03,N/A,-737280,0.0,-999.0,84,0.00,,,0.00,Wunderground v.1.15,2013-05-07 08:14:00,
2013-05-07 01:19:00,55.6,51.2,30.02,N/A,-737280,0.0,-999.0,85,0.00,,,0.00,Wunderground v.1.15,2013-05-07 08:19:00,
2013-05-07 01:24:00,55.6,51.2,30.02,N/A,-737280,0.0,-999.0,85,0.00,,,0.00,Wunderground v.1.15,2013-05-07 08:24:00,
2013-05-07 01:29:00,55.6,51.2,30.02,N/A,-737280,0.0,-999.0,85,0.00,,,0.00,Wunderground v.1.15,2013-05-07 08:29:00,
2013-05-07 01:34:00,55.6,51.2,30.02,N/A,-737280,0.0,-999.0,85,0.00,,,0.00,Wunderground v.1.15,2013-05-07 08:34:00,
2013-05-07 01:39:00,55.6,51.2,30.02,N/A,-737280,0.0,-999.0,85,0.00,,,0.00,Wunderground v.1.15,2013-05-07 08:39:00,
2013-05-07 01:44:00,55.6,51.2,30.02,N/A,-737280,0.0,-999.0,85,0.00,,,0.00,Wunderground v.1.15,2013-05-07 08:44:00,
2013-05-07 01:49:00,55.4,51.3,30.01,N/A,-737280,0.0,-999.0,86,0.00,,,0.00,Wunderground v.1.15,2013-05-07 08:49:00,
2013-05-07 01:54:00,55.4,51.3,30.01,N/A,-737280,0.0,-999.0,86,0.00,,,0.00,Wunderground v.1.15,2013-05-07 08:54:00,
2013-05-07 01:59:00,55.4,51.3,30.01,N/A,-737280,0.0,-999.0,86,0.00,,,0.00,Wunderground v.1.15,2013-05-07 08:59:00,
2013-05-07 02:04:00,55.4,51.3,30.01,N/A,-737280,0.0,-999.0,86,0.00,,,0.00,Wunderground v.1.15,2013-05-07 09:04:00,
2013-05-07 02:09:00,55.4,51.3,30.01,N/A,-737280,0.0,-999.0,86,0.00,,,0.00,Wunderground v.1.15,2013-05-07 09:09:00,
2013-05-07 02:14:00,55.4,51.3,30.01,N/A,-737280,0.0,-999.0,86,0.00,,,0.00,Wunderground v.1.15,2013-05-07 09:14:00,
2013-05-07 02:19:00,55.0,50.9,30.01,N/A,-737280,0.0,-999.0,86,0.00,,,0.00,Wunderground v.1.15,2013-05-07 09:19:00,
2013-05-07 02:24:00,55.0,50.9,30.01,N/A,-737280,0.0,-999.0,86,0.00,,,0.00,Wunderground v.1.15,2013-05-07 09:24:00,
2013-05-07 02:29:00,55.0,50.9,30.01,N/A,-737280,0.0,-999.0,86,0.00,,,0.00,Wunderground v.1.15,2013-05-07 09:29:00,
2013-05-07 02:34:00,55.0,50.9,30.01,N/A,-737280,0.0,-999.0,86,0.00,,,0.00,Wunderground v.1.15,2013-05-07 09:34:00,
2013-05-07 02:39:00,55.0,50.9,30.01,N/A,-737280,0.0,-999.0,86,0.00,,,0.00,Wunderground v.1.15,2013-05-07 09:39:00,
2013-05-07 02:44:00,55.0,50.9,30.01,N/A,-737280,0.0,-999.0,86,0.00,,,0.00,Wunderground v.1.15,2013-05-07 09:44:00,
2013-05-07 02:49:00,54.8,51.0,30.01,N/A,-737280,0.0,-999.0,87,0.00,,,0.00,Wunderground v.1.15,2013-05-07 09:49:00,
2013-05-07 02:54:00,54.8,51.0,30.01,N/A,-737280,0.0,-999.0,87,0.00,,,0.00,Wunderground v.1.15,2013-05-07 09:54:00,
2013-05-07 02:59:00,54.8,51.0,30.01,N/A,-737280,0.0,-999.0,87,0.00,,,0.00,Wunderground v.1.15,2013-05-07 09:59:00,
2013-05-07 03:04:00,54.8,51.0,30.01,N/A,-737280,0.0,-999.0,87,0.00,,,0.00,Wunderground v.1.15,2013-05-07 10:04:00,
2013-05-07 03:09:00,54.8,51.0,30.01,N/A,-737280,0.0,-999.0,87,0.00,,,0.00,Wunderground v.1.15,2013-05-07 10:09:00,
2013-05-07 03:14:00,54.8,51.0,30.01,N/A,-737280,0.0,-999.0,87,0.00,,,0.00,Wunderground v.1.15,2013-05-07 10:14:00,
2013-05-07 03:19:00,55.0,51.2,30.01,N/A,-737280,0.0,-999.0,87,0.00,,,0.00,Wunderground v.1.15,2013-05-07 10:19:00,
2013-05-07 03:24:00,55.0,51.2,30.01,N/A,-737280,0.0,-999.0,87,0.00,,,0.00,Wunderground v.1.15,2013-05-07 10:24:00,
2013-05-07 03:29:00,55.0,51.2,30.01,N/A,-737280,0.0,-999.0,87,0.00,,,0.00,Wunderground v.1.15,2013-05-07 10:29:00,
2013-05-07 03:34:00,55.0,51.2,30.01,N/A,-737280,0.0,-999.0,87,0.00,,,0.00,Wunderground v.1.15,2013-05-07 10:34:00,
2013-05-07 03:39:00,55.0,51.2,30.01,N/A,-737280,0.0,-999.0,87,0.00,,,0.00,Wunderground v.1.15,2013-05-07 10:39:00,
2013-05-07 03:44:00,55.0,51.2,30.01,N/A,-737280,0.0,-999.0,87,0.00,,,0.00,Wunderground v.1.15,2013-05-07 10:44:00,
2013-05-07 03:49:00,55.0,51.5,30.01,N/A,-737280,0.0,-999.0,88,0.00,,,0.00,Wunderground v.1.15,2013-05-07 10:49:00,
2013-05-07 03:54:00,55.0,51.5,30.01,N/A,-737280,0.0,-999.0,88,0.00,,,0.00,Wunderground v.1.15,2013-05-07 10:54:00,
2013-05-07 03:59:00,55.0,51.5,30.01,N/A,-737280,0.0,-999.0,88,0.00,,,0.00,Wunderground v.1.15,2013-05-07 10:59:00,
2013-05-07 04:04:00,55.0,51.5,30.01,N/A,-737280,0.0,-999.0,88,0.00,,,0.00,Wunderground v.1.15,2013-05-07 11:04:00,
2013-05-07 04:09:00,55.0,51.5,30.01,N/A,-737280,0.0,-999.0,88,0.00,,,0.00,Wunderground v.1.15,2013-05-07 11:09:00,
2013-05-07 04:14:00,55.0,51.5,30.01,N/A,-737280,0.0,-999.0,88,0.00,,,0.00,Wunderground v.1.15,2013-05-07 11:14:00,
2013-05-07 04:19:00,55.1,51.6,30.00,N/A,-737280,0.0,-999.0,88,0.00,,,0.00,Wunderground v.1.15,2013-05-07 11:19:00,
2013-05-07 04:24:00,55.1,51.6,30.00,N/A,-737280,0.0,-999.0,88,0.00,,,0.00,Wunderground v.1.15,2013-05-07 11:24:00,
2013-05-07 04:29:00,55.1,51.6,30.00,N/A,-737280,0.0,-999.0,88,0.00,,,0.00,Wunderground v.1.15,2013-05-07 11:29:00,
2013-05-07 04:34:00,55.1,51.6,30.00,N/A,-737280,0.0,-999.0,88,0.00,,,0.00,Wunderground v.1.15,2013-05-07 11:34:00,
2013-05-07 04:39:00,55.1,51.6,30.00,N/A,-737280,0.0,-999.0,88,0.00,,,0.00,Wunderground v.1.15,2013-05-07 11:39:00,
2013-05-07 04:44:00,55.1,51.6,30.00,N/A,-737280,0.0,-999.0,88,0.00,,,0.00,Wunderground v.1.15,2013-05-07 11:44:00,
2013-05-07 04:49:00,54.9,51.4,30.00,N/A,-737280,0.0,-999.0,88,0.00,,,0.00,Wunderground v.1.15,2013-05-07 11:49:00,
2013-05-07 04:54:00,54.9,51.4,30.00,N/A,-737280,0.0,-999.0,88,0.00,,,0.00,Wunderground v.1.15,2013-05-07 11:54:00,
2013-05-07 04:59:00,54.9,51.4,30.00,N/A,-737280,0.0,-999.0,88,0.00,,,0.00,Wunderground v.1.15,2013-05-07 11:59:00,
2013-05-07 05:10:00,54.7,51.2,30.00,WSW,245,0.0,0.0,88,0.00,,,0.00,Wunderground v.1.15,2013-05-07 12:10:00,
2013-05-07 05:16:00,54.5,51.0,30.00,WSW,245,0.0,0.0,88,0.00,,,0.00,Wunderground v.1.15,2013-05-07 12:16:00,
2013-05-07 05:22:00,54.5,51.3,30.00,WSW,245,0.0,0.0,89,0.00,,,0.00,Wunderground v.1.15,2013-05-07 12:22:00,
2013-05-07 05:28:00,54.5,51.3,30.00,WSW,245,0.0,0.0,89,0.00,,,0.00,Wunderground v.1.15,2013-05-07 12:28:00,
2013-05-07 05:34:00,54.4,51.2,30.00,WSW,245,0.0,0.0,89,0.00,,,0.00,Wunderground v.1.15,2013-05-07 12:34:00,
2013-05-07 05:40:00,54.2,51.0,30.00,WSW,245,0.0,0.0,89,0.00,,,0.00,Wunderground v.1.15,2013-05-07 12:40:00,
2013-05-07 05:46:00,54.1,50.9,30.00,WSW,245,0.0,0.0,89,0.00,,,0.00,Wunderground v.1.15,2013-05-07 12:46:00,
2013-05-07 05:52:00,53.9,50.7,30.00,WSW,245,0.0,0.0,89,0.00,,,0.00,Wunderground v.1.15,2013-05-07 12:52:00,
2013-05-07 05:58:00,53.6,50.4,30.00,WSW,244,0.0,0.0,89,0.00,,,0.00,Wunderground v.1.15,2013-05-07 12:58:00,
2013-05-07 06:04:00,53.5,50.6,30.01,WSW,245,0.0,0.0,90,0.00,,,0.00,Wunderground v.1.15,2013-05-07 13:04:00,
2013-05-07 06:10:00,53.4,50.5,30.01,WSW,245,0.0,0.0,90,0.00,,,0.00,Wunderground v.1.15,2013-05-07 13:10:00,
2013-05-07 06:16:00,53.6,51.0,30.01,WSW,245,0.0,0.0,91,0.00,,,0.00,Wunderground v.1.15,2013-05-07 13:16:00,
2013-05-07 06:22:00,53.5,50.9,30.01,WSW,244,0.0,0.0,91,0.00,,,0.00,Wunderground v.1.15,2013-05-07 13:22:00,
2013-05-07 06:28:00,53.6,51.0,30.01,WSW,245,0.0,0.0,91,0.00,,,0.00,Wunderground v.1.15,2013-05-07 13:28:00,
2013-05-07 06:34:00,53.7,51.1,30.01,WSW,245,0.0,0.0,91,0.00,,,0.00,Wunderground v.1.15,2013-05-07 13:34:00,
2013-05-07 06:40:00,53.8,51.2,30.01,WSW,245,0.0,0.0,91,0.00,,,0.00,Wunderground v.1.15,2013-05-07 13:40:00,
2013-05-07 06:46:00,54.0,51.4,30.01,WSW,244,0.0,0.0,91,0.00,,,0.00,Wunderground v.1.15,2013-05-07 13:46:00,
2013-05-07 06:52:00,54.2,51.6,30.02,WSW,245,0.0,0.0,91,0.00,,,0.00,Wunderground v.1.15,2013-05-07 13:52:00,
2013-05-07 06:58:00,54.5,52.2,30.02,WSW,245,0.0,0.0,92,0.00,,,0.00,Wunderground v.1.15,2013-05-07 13:58:00,
2013-05-07 07:04:00,54.7,52.1,30.02,WSW,245,0.0,0.0,91,0.00,,,0.00,Wunderground v.1.15,2013-05-07 14:04:00,
2013-05-07 07:10:00,54.9,52.3,30.02,WSW,245,0.0,0.0,91,0.00,,,0.00,Wunderground v.1.15,2013-05-07 14:10:00,
2013-05-07 07:16:00,55.3,52.7,30.02,WSW,245,0.0,0.0,91,0.00,,,0.00,Wunderground v.1.15,2013-05-07 14:16:00,
2013-05-07 13:43:00,67.8,50.0,30.04,SW,225,5.0,6.0,53,0.00,,,0.00,Wunderground v.1.15,2013-05-07 20:43:00,
2013-05-07 13:48:00,69.0,49.6,30.04,SW,231,3.0,7.0,50,0.00,,,0.00,Wunderground v.1.15,2013-05-07 20:48:00,
2013-05-07 13:54:00,68.5,50.7,30.04,West,262,4.0,6.0,53,0.00,,,0.00,Wunderground v.1.15,2013-05-07 20:54:00,
2013-05-07 14:00:00,68.2,49.9,30.04,WSW,245,4.0,4.0,52,0.00,,,0.00,Wunderground v.1.15,2013-05-07 21:00:00,
2013-05-07 14:06:00,67.7,50.5,30.04,West,269,5.0,5.0,54,0.00,,,0.00,Wunderground v.1.15,2013-05-07 21:06:00,
2013-05-07 14:12:00,68.1,49.3,30.04,WSW,240,5.0,5.0,51,0.00,,,0.00,Wunderground v.1.15,2013-05-07 21:12:00,
2013-05-07 14:18:00,68.6,49.2,30.04,SSW,193,4.0,7.0,50,0.00,,,0.00,Wunderground v.1.15,2013-05-07 21:18:00,
2013-05-07 14:24:00,68.4,50.6,30.04,SSW,203,4.0,4.0,53,0.00,,,0.00,Wunderground v.1.15,2013-05-07 21:24:00,
2013-05-07 14:30:00,69.1,49.7,30.04,SSW,205,4.0,4.0,50,0.00,,,0.00,Wunderground v.1.15,2013-05-07 21:30:00,
2013-05-07 14:36:00,68.6,51.3,30.04,WSW,243,5.0,11.0,54,0.00,,,0.00,Wunderground v.1.15,2013-05-07 21:36:00,
2013-05-07 14:42:00,68.1,51.8,30.03,WSW,251,4.0,11.0,56,0.00,,,0.00,Wunderground v.1.15,2013-05-07 21:42:00,
2013-05-07 14:48:00,68.1,50.3,30.03,SW,214,5.0,11.0,53,0.00,,,0.00,Wunderground v.1.15,2013-05-07 21:48:00,
2013-05-07 14:54:00,67.8,52.0,30.04,WSW,249,5.0,11.0,57,0.00,,,0.00,Wunderground v.1.15,2013-05-07 21:54:00,
2013-05-07 15:00:00,68.1,49.3,30.03,SW,218,5.0,5.0,51,0.00,,,0.00,Wunderground v.1.15,2013-05-07 22:00:00,
2013-05-07 15:06:00,68.3,50.0,30.03,WSW,255,3.0,5.0,52,0.00,,,0.00,Wunderground v.1.15,2013-05-07 22:06:00,
2013-05-07 15:12:00,68.2,50.9,30.02,South,186,3.0,7.0,54,0.00,,,0.00,Wunderground v.1.15,2013-05-07 22:12:00,
2013-05-07 15:18:00,67.7,50.5,30.02,West,276,5.0,7.0,54,0.00,,,0.00,Wunderground v.1.15,2013-05-07 22:18:00,
2013-05-07 15:24:00,68.1,50.8,30.02,SW,224,4.0,5.0,54,0.00,,,0.00,Wunderground v.1.15,2013-05-07 22:24:00,
2013-05-07 15:30:00,68.5,48.6,30.02,SW,224,3.0,4.0,49,0.00,,,0.00,Wunderground v.1.15,2013-05-07 22:30:00,
2013-05-07 15:36:00,68.4,47.9,30.02,SW,226,4.0,13.0,48,0.00,,,0.00,Wunderground v.1.15,2013-05-07 22:36:00,
2013-05-07 15:42:00,68.4,49.0,30.02,NNW,344,3.0,13.0,50,0.00,,,0.00,Wunderground v.1.15,2013-05-07 22:42:00,
2013-05-07 15:48:00,68.6,49.2,30.02,SW,233,3.0,13.0,50,0.00,,,0.00,Wunderground v.1.15,2013-05-07 22:48:00,
2013-05-07 15:54:00,69.2,49.2,30.01,WSW,243,3.0,13.0,49,0.00,,,0.00,Wunderground v.1.15,2013-05-07 22:54:00,
2013-05-07 16:00:00,69.0,49.0,30.01,WSW,257,3.0,3.0,49,0.00,,,0.00,Wunderground v.1.15,2013-05-07 23:00:00,
2013-05-07 16:06:00,69.5,49.5,30.01,WSW,246,2.0,4.0,49,0.00,,,0.00,Wunderground v.1.15,2013-05-07 23:06:00,
2013-05-07 16:12:00,69.7,48.6,30.01,SW,226,2.0,5.0,47,0.00,,,0.00,Wunderground v.1.15,2013-05-07 23:12:00,
2013-05-07 16:18:00,69.5,48.4,30.01,West,281,3.0,7.0,47,0.00,,,0.00,Wunderground v.1.15,2013-05-07 23:18:00,
2013-05-07 16:24:00,68.9,47.3,30.01,WSW,246,4.0,7.0,46,0.00,,,0.00,Wunderground v.1.15,2013-05-07 23:24:00,
2013-05-07 16:30:00,69.3,48.8,30.01,SSW,208,5.0,5.0,48,0.00,,,0.00,Wunderground v.1.15,2013-05-07 23:30:00,
2013-05-07 16:36:00,68.9,48.4,30.01,SSW,205,4.0,10.0,48,0.00,,,0.00,Wunderground v.1.15,2013-05-07 23:36:00,
2013-05-07 16:42:00,68.8,48.3,30.01,South,172,4.0,10.0,48,0.00,,,0.00,Wunderground v.1.15,2013-05-07 23:42:00,
2013-05-07 16:48:00,68.4,49.6,30.00,West,259,5.0,10.0,51,0.00,,,0.00,Wunderground v.1.15,2013-05-07 23:48:00,
2013-05-07 16:54:00,68.1,49.8,30.01,West,269,5.0,10.0,52,0.00,,,0.00,Wunderground v.1.15,2013-05-07 23:54:00,
2013-05-07 17:00:00,67.7,50.5,30.01,SSW,208,5.0,6.0,54,0.00,,,0.00,Wunderground v.1.15,2013-05-08 00:00:00,
2013-05-07 17:06:00,67.4,50.7,30.01,South,190,6.0,8.0,55,0.00,,,0.00,Wunderground v.1.15,2013-05-08 00:06:00,
2013-05-07 17:12:00,66.9,50.7,30.01,SW,236,6.0,7.0,56,0.00,,,0.00,Wunderground v.1.15,2013-05-08 00:12:00,
2013-05-07 17:18:00,66.3,52.0,30.01,West,266,6.0,7.0,60,0.00,,,0.00,Wunderground v.1.15,2013-05-08 00:18:00,
2013-05-07 17:24:00,66.1,52.7,30.02,WSW,245,7.0,10.0,62,0.00,,,0.00,Wunderground v.1.15,2013-05-08 00:24:00,
2013-05-07 17:30:00,65.6,52.2,30.02,SW,231,6.0,8.0,62,0.00,,,0.00,Wunderground v.1.15,2013-05-08 00:30:00,
2013-05-07 17:36:00,65.5,52.1,30.01,WSW,256,6.0,11.0,62,0.00,,,0.00,Wunderground v.1.15,2013-05-08 00:36:00,
2013-05-07 17:42:00,65.3,52.8,30.01,WSW,256,6.0,11.0,64,0.00,,,0.00,Wunderground v.1.15,2013-05-08 00:42:00,
2013-05-07 17:48:00,66.0,53.0,30.02,WSW,243,5.0,11.0,63,0.00,,,0.00,Wunderground v.1.15,2013-05-08 00:48:00,
2013-05-07 17:54:00,65.5,53.0,30.02,West,259,5.0,11.0,64,0.00,,,0.00,Wunderground v.1.15,2013-05-08 00:54:00,
2013-05-07 18:00:00,65.5,53.0,30.02,South,183,5.0,5.0,64,0.00,,,0.00,Wunderground v.1.15,2013-05-08 01:00:00,
2013-05-07 18:06:00,65.3,53.2,30.02,SW,236,5.0,7.0,65,0.00,,,0.00,Wunderground v.1.15,2013-05-08 01:06:00,
2013-05-07 18:12:00,64.9,52.8,30.02,West,266,5.0,6.0,65,0.00,,,0.00,Wunderground v.1.15,2013-05-08 01:12:00,
2013-05-07 18:18:00,64.7,53.5,30.02,SW,236,5.0,7.0,67,0.00,,,0.00,Wunderground v.1.15,2013-05-08 01:18:00,
2013-05-07 18:24:00,63.7,52.9,30.02,SSW,205,5.0,5.0,68,0.00,,,0.00,Wunderground v.1.15,2013-05-08 01:24:00,
2013-05-07 18:30:00,63.0,52.7,30.02,WSW,238,4.0,4.0,69,0.00,,,0.00,Wunderground v.1.15,2013-05-08 01:30:00,
2013-05-07 18:36:00,62.3,52.4,30.02,SW,229,4.0,12.0,70,0.00,,,0.00,Wunderground v.1.15,2013-05-08 01:36:00,
2013-05-07 18:42:00,62.1,53.7,30.02,WSW,253,4.0,12.0,74,0.00,,,0.00,Wunderground v.1.15,2013-05-08 01:42:00,
2013-05-07 18:48:00,62.3,53.9,30.02,WSW,243,4.0,12.0,74,0.00,,,0.00,Wunderground v.1.15,2013-05-08 01:48:00,
2013-05-07 18:54:00,61.9,53.5,30.02,SW,236,4.0,12.0,74,0.00,,,0.00,Wunderground v.1.15,2013-05-08 01:54:00,
2013-05-07 19:00:00,61.4,52.7,30.02,WSW,250,4.0,4.0,73,0.00,,,0.00,Wunderground v.1.15,2013-05-08 02:00:00,
2013-05-07 19:06:00,61.1,51.2,30.02,SW,236,4.0,4.0,70,0.00,,,0.00,Wunderground v.1.15,2013-05-08 02:06:00,
2013-05-07 19:12:00,60.9,50.7,30.03,WSW,252,3.0,3.0,69,0.00,,,0.00,Wunderground v.1.15,2013-05-08 02:12:00,
2013-05-07 19:18:00,60.8,50.2,30.03,WSW,246,3.0,3.0,68,0.00,,,0.00,Wunderground v.1.15,2013-05-08 02:18:00,
2013-05-07 19:24:00,60.5,49.9,30.03,SW,219,3.0,6.0,68,0.00,,,0.00,Wunderground v.1.15,2013-05-08 02:24:00,
2013-05-07 19:30:00,60.2,50.8,30.03,SW,236,4.0,5.0,71,0.00,,,0.00,Wunderground v.1.15,2013-05-08 02:30:00,
2013-05-07 19:36:00,60.0,50.9,30.03,SW,221,4.0,10.0,72,0.00,,,0.00,Wunderground v.1.15,2013-05-08 02:36:00,